Time;durP1;ratioP1;P1;durP2;ratioP2;P2;SDS_P1;SDS_P2;PMS_P1;PMS_P2;Temp;Humidity;BMP_temperature;BMP_pressure;BME280_temperature;BME280_humidity;BME280_pressure;Samples;Min_cycle;Max_cycle;Signal;HPM_P1;HPM_P2
2022/01/31 00:00:20;;;;;;;20.55;3.90;;;;;;;3.17;68.20;101033.78;7392412;19;20358;-67
2022/01/31 00:02:49;;;;;;;27.05;3.72;;;;;;;3.14;68.06;101034.59;7394068;19;20492;-67
2022/01/31 00:05:18;;;;;;;21.05;3.90;;;;;;;3.16;68.22;101032.03;7392251;19;20023;-67
2022/01/31 00:07:46;;;;;;;27.00;5.50;;;;;;;3.14;68.48;101031.16;7392700;19;20037;-67
2022/01/31 00:10:26;;;;;;;21.60;3.88;;;;;;;3.14;68.45;101028.56;7394086;19;20015;-67
2022/01/31 00:12:59;;;;;;;26.60;4.00;;;;;;;3.14;68.41;101028.56;7397337;19;20091;-67
2022/01/31 00:15:28;;;;;;;21.30;3.67;;;;;;;3.13;68.25;101030.25;7401065;19;20436;-66
2022/01/31 00:17:56;;;;;;;18.60;3.85;;;;;;;3.12;68.27;101023.31;7399896;19;20026;-67
2022/01/31 00:20:24;;;;;;;21.40;4.13;;;;;;;3.13;68.25;101004.34;7401339;19;20022;-67
2022/01/31 00:22:52;;;;;;;24.80;3.97;;;;;;;3.14;68.51;101000.03;7401222;19;20018;-67
2022/01/31 00:25:23;;;;;;;19.55;3.13;;;;;;;3.12;68.57;100992.22;7400678;19;20421;-66
2022/01/31 00:27:51;;;;;;;23.85;3.72;;;;;;;3.14;68.56;100963.75;7399186;19;20035;-67
2022/01/31 00:30:20;;;;;;;16.20;3.40;;;;;;;3.14;68.43;100958.56;7400917;19;20026;-66
2022/01/31 00:32:48;;;;;;;25.10;4.22;;;;;;;3.13;68.39;100951.63;7400743;19;20022;-67
2022/01/31 00:35:16;;;;;;;24.33;3.83;;;;;;;3.13;68.76;100947.28;7400733;19;20105;-67
2022/01/31 00:37:44;;;;;;;17.08;3.03;;;;;;;3.13;68.63;100939.50;7398004;19;20023;-67
2022/01/31 00:40:14;;;;;;;20.90;3.85;;;;;;;3.14;68.67;100937.81;7397632;19;20480;-67
2022/01/31 00:42:44;;;;;;;20.70;4.00;;;;;;;3.12;68.45;100934.31;7398871;19;20490;-67
2022/01/31 00:45:18;;;;;;;21.27;3.50;;;;;;;3.14;68.56;100937.81;7398569;19;20020;-67
2022/01/31 00:47:49;;;;;;;26.20;3.63;;;;;;;3.14;68.69;100938.66;7399193;19;20031;-67
2022/01/31 00:50:19;;;;;;;18.45;3.33;;;;;;;3.14;68.41;100935.22;7400504;19;20043;-70
2022/01/31 00:52:48;;;;;;;22.00;3.97;;;;;;;3.13;68.03;100920.50;7400554;19;20019;-67
2022/01/31 00:55:17;;;;;;;17.30;3.42;;;;;;;3.12;67.72;100908.41;7402782;19;20074;-70
2022/01/31 00:57:48;;;;;;;22.80;4.07;;;;;;;3.08;66.69;100907.47;7399089;19;20039;-66
2022/01/31 01:00:17;;;;;;;21.33;3.35;;;;;;;3.07;67.79;100901.44;7400607;19;20015;-65
2022/01/31 01:02:46;;;;;;;21.08;4.40;;;;;;;3.06;66.87;100904.88;7399996;19;20025;-66
2022/01/31 01:05:15;;;;;;;22.25;3.58;;;;;;;3.06;67.26;100898.84;7399490;19;20501;-66
2022/01/31 01:07:45;;;;;;;17.88;3.60;;;;;;;3.06;67.22;100885.88;7397263;19;20105;-67
2022/01/31 01:10:15;;;;;;;15.35;3.40;;;;;;;3.03;67.15;100881.53;7400185;19;20018;-67
2022/01/31 01:12:43;;;;;;;23.08;3.83;;;;;;;3.04;66.99;100880.66;7400121;19;20089;-67
2022/01/31 01:15:15;;;;;;;22.27;3.17;;;;;;;3.03;67.42;100878.94;7399497;19;20032;-67
2022/01/31 01:17:45;;;;;;;24.48;3.65;;;;;;;3.04;67.75;100869.44;7397461;19;20035;-67
2022/01/31 01:20:15;;;;;;;21.55;4.28;;;;;;;3.02;66.46;100856.44;7397579;19;20036;-67
2022/01/31 01:22:43;;;;;;;23.58;3.70;;;;;;;3.00;67.09;100849.50;7397118;19;20018;-67
2022/01/31 01:25:13;;;;;;;26.80;3.92;;;;;;;3.01;67.60;100846.94;7396281;19;20018;-66
2022/01/31 01:27:42;;;;;;;19.63;3.85;;;;;;;3.02;67.86;100843.50;7397832;19;20030;-66
2022/01/31 01:30:15;;;;;;;17.67;3.22;;;;;;;2.99;65.38;100833.06;7399088;19;20010;-66
2022/01/31 01:32:58;;;;;;;26.90;5.07;;;;;;;2.99;67.02;100832.22;7399382;19;20015;-66
2022/01/31 01:35:30;;;;;;;25.80;4.05;;;;;;;2.99;67.52;100822.69;7399302;19;20014;-66
2022/01/31 01:37:59;;;;;;;31.85;4.40;;;;;;;2.99;67.42;100822.69;7397773;19;20025;-66
2022/01/31 01:40:27;;;;;;;16.48;3.90;;;;;;;2.99;67.26;100825.28;7398669;19;20023;-66
2022/01/31 01:42:55;;;;;;;26.38;4.32;;;;;;;2.97;67.37;100814.06;7396500;19;20010;-67
2022/01/31 01:45:26;;;;;;;24.58;4.75;;;;;;;2.96;67.48;100804.53;7396002;19;20487;-67
2022/01/31 01:47:54;;;;;;;25.65;4.30;;;;;;;2.96;66.32;100817.50;7396473;19;20039;-67
2022/01/31 01:50:22;;;;;;;22.40;4.07;;;;;;;2.96;66.93;100803.66;7398388;19;20018;-67
2022/01/31 01:52:51;;;;;;;27.23;3.60;;;;;;;2.96;67.15;100808.84;7396343;19;20018;-67
2022/01/31 01:55:19;;;;;;;22.73;4.00;;;;;;;2.94;67.24;100795.88;7396226;19;20019;-66
2022/01/31 01:57:47;;;;;;;26.42;3.80;;;;;;;2.93;67.08;100788.94;7396071;19;20111;-67
2022/01/31 02:00:24;;;;;;;21.50;3.95;;;;;;;2.93;66.49;100779.47;7395708;19;20374;-67
2022/01/31 02:02:56;;;;;;;18.10;3.40;;;;;;;2.90;65.90;100774.22;7398492;19;20019;-67
2022/01/31 02:05:24;;;;;;;21.38;3.75;;;;;;;2.91;67.01;100767.34;7398326;19;20019;-67
2022/01/31 02:07:53;;;;;;;25.35;4.22;;;;;;;2.90;66.95;100752.66;7395692;19;20033;-67
2022/01/31 02:10:25;;;;;;;31.88;4.82;;;;;;;2.90;67.60;100747.47;7395878;19;20035;-67
2022/01/31 02:12:53;;;;;;;34.00;4.85;;;;;;;2.89;67.15;100745.72;7399689;19;20037;-66
2022/01/31 02:15:28;;;;;;;24.42;4.47;;;;;;;2.90;67.13;100742.28;7397621;19;20014;-67
2022/01/31 02:17:59;;;;;;;26.90;5.03;;;;;;;2.89;67.69;100745.72;7396304;19;20025;-69
2022/01/31 02:20:27;;;;;;;21.35;3.90;;;;;;;2.88;67.42;100741.38;7396003;19;20378;-66
2022/01/31 02:23:00;;;;;;;27.58;4.05;;;;;;;2.87;67.81;100732.75;7397356;19;20019;-67
2022/01/31 02:25:28;;;;;;;26.23;5.03;;;;;;;2.87;67.82;100721.50;7397478;19;20114;-67
2022/01/31 02:27:56;;;;;;;25.55;4.57;;;;;;;2.85;68.18;100721.50;7396005;19;20022;-67
2022/01/31 02:30:24;;;;;;;19.38;3.97;;;;;;;2.85;67.84;100697.31;7395328;19;20031;-67
2022/01/31 02:32:52;;;;;;;24.48;3.88;;;;;;;2.83;68.13;100697.31;7395291;19;20022;-67
2022/01/31 02:35:20;;;;;;;27.00;5.05;;;;;;;2.81;67.92;100698.16;7393085;19;20022;-66
2022/01/31 02:37:48;;;;;;;23.17;3.55;;;;;;;2.80;68.67;100684.31;7395888;19;20031;-66
2022/01/31 02:40:26;;;;;;;23.60;4.47;;;;;;;2.80;68.46;100686.91;7396748;19;20022;-66
2022/01/31 02:42:54;;;;;;;19.77;4.38;;;;;;;2.80;68.69;100670.50;7396976;19;20018;-66
2022/01/31 02:45:22;;;;;;;22.13;3.75;;;;;;;2.77;68.63;100672.19;7394969;19;20010;-66
2022/01/31 02:47:53;;;;;;;30.48;4.60;;;;;;;2.75;67.86;100663.53;7394780;19;20031;-67
2022/01/31 02:50:22;;;;;;;23.15;4.40;;;;;;;2.74;68.96;100654.03;7395190;19;20098;-67
2022/01/31 02:52:59;;;;;;;25.60;4.15;;;;;;;2.74;68.27;100647.97;7396397;19;20022;-67
2022/01/31 02:55:30;;;;;;;27.27;4.65;;;;;;;2.74;69.09;100635.03;7396680;19;20018;-67
2022/01/31 02:57:58;;;;;;;32.78;4.88;;;;;;;2.72;69.14;100624.66;7394620;19;20027;-67
2022/01/31 03:00:27;;;;;;;24.55;4.28;;;;;;;2.71;69.02;100622.91;7395707;19;20387;-66
2022/01/31 03:02:55;;;;;;;24.10;4.25;;;;;;;2.71;69.15;100614.28;7394457;19;20027;-67
2022/01/31 03:05:23;;;;;;;20.75;4.35;;;;;;;2.70;68.39;100612.53;7396534;19;20023;-67
2022/01/31 03:07:51;;;;;;;31.67;3.97;;;;;;;2.69;69.12;100605.63;7395428;19;20015;-67
2022/01/31 03:10:19;;;;;;;26.48;5.00;;;;;;;2.68;69.10;100602.16;7395718;19;20014;-68
2022/01/31 03:12:50;;;;;;;30.30;4.97;;;;;;;2.67;68.91;100599.56;7397078;19;20040;-67
2022/01/31 03:15:19;;;;;;;26.92;4.60;;;;;;;2.66;69.15;100603.88;7398406;19;20386;-66
2022/01/31 03:17:49;;;;;;;28.77;4.32;;;;;;;2.67;68.96;100595.25;7395572;19;20036;-67
2022/01/31 03:20:19;;;;;;;33.65;4.75;;;;;;;2.66;69.22;100584.88;7395968;19;20035;-67
2022/01/31 03:22:47;;;;;;;24.00;4.25;;;;;;;2.66;69.37;100585.72;7395440;19;20018;-67
2022/01/31 03:25:16;;;;;;;26.75;4.28;;;;;;;2.66;69.25;100583.16;7393667;19;20035;-67
2022/01/31 03:27:45;;;;;;;27.98;5.03;;;;;;;2.65;69.10;100576.22;7393076;19;20475;-67
2022/01/31 03:30:18;;;;;;;28.77;3.88;;;;;;;2.65;69.22;100554.66;7395232;19;20040;-67
2022/01/31 03:32:47;;;;;;;27.65;5.00;;;;;;;2.66;69.30;100553.78;7393733;19;20032;-67
2022/01/31 03:35:16;;;;;;;31.55;6.18;;;;;;;2.65;69.58;100545.13;7394947;19;20031;-67
2022/01/31 03:37:45;;;;;;;24.38;4.18;;;;;;;2.66;69.75;100526.16;7393945;19;20066;-65
2022/01/31 03:40:14;;;;;;;27.15;4.65;;;;;;;2.67;69.65;100521.88;7394979;19;20085;-66
2022/01/31 03:42:42;;;;;;;21.17;4.65;;;;;;;2.66;69.25;100510.63;7395205;19;20066;-66
2022/01/31 03:45:15;;;;;;;29.25;4.60;;;;;;;2.64;69.36;100506.28;7392974;19;20010;-66
2022/01/31 03:47:46;;;;;;;35.75;4.82;;;;;;;2.63;69.75;100500.25;7399067;19;20027;-67
2022/01/31 03:50:17;;;;;;;24.25;4.13;;;;;;;2.60;69.13;100487.25;7399572;19;20018;-65
2022/01/31 03:52:45;;;;;;;22.73;4.10;;;;;;;2.57;69.66;100472.56;7402683;19;20019;-66
2022/01/31 03:55:16;;;;;;;28.65;3.33;;;;;;;2.55;69.78;100465.63;7402098;19;20349;-65
2022/01/31 03:57:44;;;;;;;28.52;3.95;;;;;;;2.54;70.10;100464.78;7401010;19;20018;-66
2022/01/31 04:00:17;;;;;;;39.10;9.38;;;;;;;2.52;70.09;100453.53;7401840;19;20018;-68
2022/01/31 04:02:46;;;;;;;28.80;5.07;;;;;;;2.51;70.14;100443.19;7399433;19;20019;-66
2022/01/31 04:05:14;;;;;;;26.92;4.32;;;;;;;2.48;70.16;100437.97;7398938;19;20018;-66
2022/01/31 04:07:43;;;;;;;21.42;4.32;;;;;;;2.44;70.31;100435.38;7398206;19;20420;-66
2022/01/31 04:10:12;;;;;;;26.33;4.45;;;;;;;2.42;70.07;100421.53;7398790;19;20036;-67
2022/01/31 04:12:40;;;;;;;24.15;4.47;;;;;;;2.40;70.33;100410.31;7399376;19;20479;-67
2022/01/31 04:15:09;;;;;;;22.77;4.40;;;;;;;2.38;70.43;100400.81;7398435;19;20483;-67
2022/01/31 04:17:40;;;;;;;24.80;4.22;;;;;;;2.35;70.12;100393.00;7400131;19;20018;-67
2022/01/31 04:20:10;;;;;;;21.42;4.07;;;;;;;2.31;70.28;100381.75;7399127;19;20015;-67
2022/01/31 04:22:45;;;;;;;27.05;4.55;;;;;;;2.29;70.28;100380.91;7401091;19;20479;-66
2022/01/31 04:25:27;;;;;;;28.38;4.90;;;;;;;2.26;70.14;100378.28;7398511;19;20022;-66
2022/01/31 04:28:02;;;;;;;22.08;3.78;;;;;;;2.18;70.33;100369.59;7399762;19;20040;-66
2022/01/31 04:30:30;;;;;;;;;;;;;;;2.15;68.47;100364.41;7401604;19;20483;-66
2022/01/31 04:33:00;;;;;;;36.22;4.78;;;;;;;2.10;70.38;100361.78;7400752;19;19921;-66
2022/01/31 04:35:29;;;;;;;27.55;5.28;;;;;;;2.05;70.76;100372.09;7401008;19;20031;-67
2022/01/31 04:37:59;;;;;;;33.42;4.25;;;;;;;2.02;70.80;100368.63;7399063;19;20018;-67
2022/01/31 04:40:27;;;;;;;44.90;10.73;;;;;;;2.00;70.80;100357.38;7400435;19;20382;-66
2022/01/31 04:42:55;;;;;;;34.58;6.72;;;;;;;1.98;71.33;100346.19;7400435;19;20019;-67
2022/01/31 04:45:23;;;;;;;25.00;4.68;;;;;;;1.94;70.88;100342.69;7398565;19;20369;-66
2022/01/31 04:47:51;;;;;;;20.08;4.70;;;;;;;1.91;70.93;100342.69;7397716;19;20041;-67
2022/01/31 04:50:22;;;;;;;34.10;5.95;;;;;;;1.88;71.01;100325.41;7397371;19;20475;-67
2022/01/31 04:52:50;;;;;;;26.48;4.55;;;;;;;1.86;71.41;100313.31;7400729;19;20015;-67
2022/01/31 04:55:18;;;;;;;27.35;5.43;;;;;;;1.83;71.38;100313.31;7400170;19;20026;-67
2022/01/31 04:57:46;;;;;;;25.92;4.43;;;;;;;1.82;71.32;100311.56;7397885;19;20028;-67
2022/01/31 05:00:15;;;;;;;27.95;4.95;;;;;;;1.79;71.39;100308.13;7396963;19;20023;-66
2022/01/31 05:02:43;;;;;;;24.95;3.97;;;;;;;1.78;71.34;100298.63;7399821;19;20022;-68
2022/01/31 05:05:12;;;;;;;27.20;4.30;;;;;;;1.74;71.58;100286.50;7399144;19;20492;-67
2022/01/31 05:07:42;;;;;;;38.22;5.80;;;;;;;1.72;71.51;100295.09;7398424;19;20023;-67
2022/01/31 05:10:11;;;;;;;30.52;5.28;;;;;;;1.70;71.57;100284.75;7397277;19;20019;-67
2022/01/31 05:12:39;;;;;;;29.17;5.18;;;;;;;1.68;71.83;100283.00;7398898;19;20416;-67
2022/01/31 05:15:08;;;;;;;34.33;6.32;;;;;;;1.66;71.83;100280.41;7399449;19;20023;-67
2022/01/31 05:17:36;;;;;;;29.17;5.25;;;;;;;1.65;71.84;100273.50;7398515;19;20046;-66
2022/01/31 05:20:05;;;;;;;24.48;5.93;;;;;;;1.63;71.26;100267.44;7399356;19;20026;-66
2022/01/31 05:22:34;;;;;;;26.40;4.38;;;;;;;1.63;72.26;100254.53;7399151;19;20039;-67
2022/01/31 05:25:05;;;;;;;33.70;5.82;;;;;;;1.63;72.40;100239.00;7399062;19;20011;-66
2022/01/31 05:27:33;;;;;;;24.48;4.65;;;;;;;1.61;71.95;100220.91;7398298;19;20031;-66
2022/01/31 05:30:01;;;;;;;25.58;4.82;;;;;;;1.59;72.13;100219.16;7396756;19;20019;-66
2022/01/31 05:32:29;;;;;;;38.53;5.35;;;;;;;1.58;72.18;100212.25;7396209;19;20475;-66
2022/01/31 05:35:00;;;;;;;27.85;5.22;;;;;;;1.56;72.34;100212.25;7398341;19;20026;-67
2022/01/31 05:37:29;;;;;;;25.48;4.47;;;;;;;1.55;72.52;100207.94;7398002;19;20040;-67
2022/01/31 05:39:57;;;;;;;31.80;5.43;;;;;;;1.55;72.50;100194.16;7396527;19;20044;-67
2022/01/31 05:42:27;;;;;;;17.50;5.10;;;;;;;1.54;72.47;100195.88;7396072;19;20018;-67
2022/01/31 05:44:56;;;;;;;24.85;6.25;;;;;;;1.54;72.83;100189.81;7396807;19;20014;-67
2022/01/31 05:47:24;;;;;;;27.35;4.38;;;;;;;1.54;72.88;100197.59;7395801;19;20022;-66
2022/01/31 05:49:52;;;;;;;33.45;5.03;;;;;;;1.54;72.83;100182.06;7396267;19;20018;-66
2022/01/31 05:52:21;;;;;;;33.60;5.93;;;;;;;1.56;73.00;100176.06;7398048;19;20036;-66
2022/01/31 05:54:49;;;;;;;30.75;5.90;;;;;;;1.55;73.07;100169.16;7398015;19;20035;-66
2022/01/31 05:57:18;;;;;;;30.60;5.38;;;;;;;1.55;73.20;100157.94;7395767;19;20022;-66
2022/01/31 05:59:50;;;;;;;37.53;7.53;;;;;;;1.56;73.30;100146.75;7397371;19;20035;-66
2022/01/31 06:02:19;;;;;;;26.45;5.55;;;;;;;1.57;73.19;100145.91;7396118;19;20023;-66
2022/01/31 06:04:47;;;;;;;27.50;5.38;;;;;;;1.57;73.44;100133.84;7397259;19;20035;-66
2022/01/31 06:07:15;;;;;;;23.38;4.70;;;;;;;1.56;73.32;100126.06;7396201;19;20440;-66
2022/01/31 06:09:43;;;;;;;26.67;5.97;;;;;;;1.56;73.40;100113.16;7393877;19;20022;-67
2022/01/31 06:12:15;;;;;;;27.38;4.93;;;;;;;1.54;73.54;100110.56;7396775;19;20038;-67
2022/01/31 06:14:43;;;;;;;36.53;5.15;;;;;;;1.54;73.61;100107.09;7397112;19;20014;-67
2022/01/31 06:17:13;;;;;;;26.02;4.85;;;;;;;1.53;73.77;100098.47;7396520;19;20029;-66
2022/01/31 06:19:42;;;;;;;25.40;4.50;;;;;;;1.51;73.90;100099.34;7396462;19;20521;-68
2022/01/31 06:22:10;;;;;;;26.30;5.60;;;;;;;1.49;73.74;100091.53;7395196;19;20027;-68
2022/01/31 06:24:39;;;;;;;21.70;4.95;;;;;;;1.48;73.75;100089.84;7396887;19;20022;-66
2022/01/31 06:27:08;;;;;;;27.65;5.10;;;;;;;1.45;73.77;100085.53;7395010;19;20026;-67
2022/01/31 06:29:36;;;;;;;28.77;5.25;;;;;;;1.44;73.73;100072.56;7396019;19;20031;-67
2022/01/31 06:32:04;;;;;;;32.30;6.22;;;;;;;1.42;73.96;100077.72;7395043;19;20475;-67
2022/01/31 06:34:35;;;;;;;29.48;4.10;;;;;;;1.42;74.01;100063.97;7396900;19;20015;-67
2022/01/31 06:37:04;;;;;;;31.13;5.70;;;;;;;1.40;74.16;100055.31;7394761;19;20435;-67
2022/01/31 06:39:32;;;;;;;26.98;5.10;;;;;;;1.39;74.13;100056.16;7394843;19;20391;-67
2022/01/31 06:42:01;;;;;;;32.83;5.20;;;;;;;1.38;74.16;100052.72;7394777;19;20026;-67
2022/01/31 06:44:29;;;;;;;38.15;6.78;;;;;;;1.39;74.13;100045.84;7394550;19;20483;-67
2022/01/31 06:46:57;;;;;;;27.17;6.43;;;;;;;1.37;74.41;100042.41;7394426;19;20042;-67
2022/01/31 06:49:25;;;;;;;28.48;5.25;;;;;;;1.38;74.35;100044.97;7394627;19;20019;-67
2022/01/31 06:51:56;;;;;;;28.65;6.38;;;;;;;1.37;74.24;100032.91;7395868;19;20468;-67
2022/01/31 06:54:24;;;;;;;29.98;5.70;;;;;;;1.38;74.52;100031.16;7396551;19;20022;-67
2022/01/31 06:56:52;;;;;;;28.88;7.03;;;;;;;1.38;74.46;100019.13;7395662;19;20014;-67
2022/01/31 06:59:20;;;;;;;30.60;6.00;;;;;;;1.39;74.42;100015.69;7393992;19;20064;-67
2022/01/31 07:01:49;;;;;;;31.27;6.13;;;;;;;1.40;74.32;100004.50;7393970;19;20036;-67
2022/01/31 07:04:17;;;;;;;33.60;5.70;;;;;;;1.40;74.22;100006.22;7393903;19;20040;-67
2022/01/31 07:06:45;;;;;;;32.17;6.18;;;;;;;1.42;74.57;100000.19;7395478;19;20027;-67
2022/01/31 07:09:16;;;;;;;25.80;5.15;;;;;;;1.42;74.34;99997.59;7393894;19;20039;-68
2022/01/31 07:11:44;;;;;;;34.35;5.55;;;;;;;1.44;74.66;99995.91;7395762;19;20021;-67
2022/01/31 07:14:29;;;;;;;26.10;6.18;;;;;;;1.44;74.35;99990.72;7393038;19;20085;-67
2022/01/31 07:16:58;;;;;;;32.85;6.55;;;;;;;1.45;74.65;99986.41;7394774;19;20027;-67
2022/01/31 07:19:28;;;;;;;26.25;4.65;;;;;;;1.46;74.64;99983.81;7393703;19;20023;-67
2022/01/31 07:21:56;;;;;;;30.90;5.65;;;;;;;1.48;74.62;99976.09;7392635;19;20018;-67
2022/01/31 07:24:42;;;;;;;26.17;4.93;;;;;;;1.51;74.37;99975.25;7393028;19;20497;-66
2022/01/31 07:27:10;;;;;;;22.95;4.95;;;;;;;1.52;74.39;99987.31;7394677;19;20018;-67
2022/01/31 07:29:38;;;;;;;37.65;6.15;;;;;;;1.53;74.54;99982.13;7393868;19;20091;-67
2022/01/31 07:32:11;;;;;;;35.65;6.03;;;;;;;1.54;74.47;99968.34;7394920;19;20015;-67
2022/01/31 07:34:41;;;;;;;31.02;6.00;;;;;;;1.56;74.84;99973.53;7394139;19;20439;-67
2022/01/31 07:37:12;;;;;;;27.98;5.97;;;;;;;1.57;74.80;99970.94;7392915;19;20066;-67
2022/01/31 07:39:44;;;;;;;32.80;4.70;;;;;;;1.59;74.96;99964.06;7393086;19;20022;-67
2022/01/31 07:42:13;;;;;;;31.30;5.95;;;;;;;1.61;74.61;99949.38;7394513;19;20025;-67
2022/01/31 07:44:41;;;;;;;30.52;5.60;;;;;;;1.64;74.88;99945.94;7391609;19;20015;-66
2022/01/31 07:47:16;;;;;;;28.15;6.47;;;;;;;1.65;74.38;99944.25;7393186;19;20476;-66
2022/01/31 07:49:44;;;;;;;28.33;5.88;;;;;;;1.66;74.32;99939.06;7393414;19;20039;-67
2022/01/31 07:52:12;;;;;;;28.58;5.35;;;;;;;1.68;74.85;99939.94;7397290;19;20027;-67
2022/01/31 07:54:44;;;;;;;26.92;5.68;;;;;;;1.69;74.73;99940.78;7395204;19;20025;-67
2022/01/31 07:57:12;;;;;;;25.80;5.32;;;;;;;1.72;74.83;99930.44;7394547;19;20039;-67
2022/01/31 07:59:40;;;;;;;32.85;5.65;;;;;;;1.73;74.42;99916.66;7392112;19;20094;-66
2022/01/31 08:02:08;;;;;;;25.75;6.30;;;;;;;1.75;74.74;99913.22;7393904;19;20031;-67
2022/01/31 08:04:36;;;;;;;25.35;4.53;;;;;;;1.76;74.46;99909.75;7393804;19;20031;-66
2022/01/31 08:07:05;;;;;;;40.03;6.32;;;;;;;1.78;74.69;99912.34;7394183;19;20032;-66
2022/01/31 08:09:33;;;;;;;32.20;5.30;;;;;;;1.79;74.30;99902.03;7393267;19;20027;-67
2022/01/31 08:12:05;;;;;;;27.45;5.95;;;;;;;1.81;74.30;99901.13;7393872;19;20039;-66
2022/01/31 08:14:34;;;;;;;22.52;5.35;;;;;;;1.81;74.35;99891.69;7394215;19;20492;-66
2022/01/31 08:17:02;;;;;;;30.23;6.85;;;;;;;1.83;74.49;99896.84;7392877;19;20018;-66
2022/01/31 08:19:30;;;;;;;60.38;19.70;;;;;;;1.85;74.23;99889.94;7393739;19;20018;-66
2022/01/31 08:21:58;;;;;;;37.70;7.88;;;;;;;1.87;74.20;99888.22;7393575;19;20448;-66
2022/01/31 08:24:26;;;;;;;23.30;5.63;;;;;;;1.89;74.10;99873.56;7393230;19;20032;-68
2022/01/31 08:27:01;;;;;;;30.55;6.88;;;;;;;1.91;74.22;99872.69;7393147;19;20370;-66
2022/01/31 08:29:36;;;;;;;25.50;6.53;;;;;;;1.94;74.14;99859.75;7393207;19;20038;-66
2022/01/31 08:32:09;;;;;;;22.58;6.22;;;;;;;1.97;73.98;99852.84;7393485;19;20014;-66
2022/01/31 08:37:19;;;;;;;23.70;5.43;;;;;;;2.03;74.08;99845.94;7399348;19;20022;-65
2022/01/31 08:39:47;;;;;;;17.65;5.30;;;;;;;2.06;73.91;99833.03;7399427;19;20496;-66
2022/01/31 08:42:16;;;;;;;26.20;6.50;;;;;;;2.09;73.98;99820.06;7396909;19;20018;-66
2022/01/31 08:44:48;;;;;;;26.52;5.18;;;;;;;2.14;73.55;99821.78;7397197;19;20024;-66
2022/01/31 08:47:17;;;;;;;28.20;5.80;;;;;;;2.17;73.38;99811.44;7399711;19;20022;-66
2022/01/31 08:49:46;;;;;;;25.50;5.47;;;;;;;2.19;73.54;99810.56;7397632;19;20018;-66
2022/01/31 08:52:14;;;;;;;30.20;5.53;;;;;;;2.21;73.85;99803.66;7397651;19;20017;-66
2022/01/31 08:54:42;;;;;;;28.23;6.18;;;;;;;2.25;73.32;99795.03;7397423;19;20022;-66
2022/01/31 08:57:11;;;;;;;23.70;5.45;;;;;;;2.31;73.52;99809.66;7399114;19;20014;-66
2022/01/31 08:59:44;;;;;;;22.08;5.25;;;;;;;2.34;73.33;99814.84;7397394;19;20015;-67
2022/01/31 09:02:18;;;;;;;19.70;5.68;;;;;;;2.39;73.03;99805.31;7397201;19;20455;-66
2022/01/31 09:04:51;;;;;;;30.85;6.85;;;;;;;2.44;73.16;99807.91;7400071;19;20010;-66
2022/01/31 09:07:20;;;;;;;22.63;5.53;;;;;;;2.48;73.10;99800.97;7397181;19;20424;-67
2022/01/31 09:09:52;;;;;;;23.65;5.78;;;;;;;2.52;73.01;99805.28;7396552;19;20018;-66
2022/01/31 09:12:22;;;;;;;20.63;6.55;;;;;;;2.55;72.71;99794.91;7399394;19;20379;-66
2022/01/31 09:14:50;;;;;;;28.73;6.68;;;;;;;2.59;72.57;99796.59;7397074;19;20359;-66
2022/01/31 09:17:21;;;;;;;19.98;4.80;;;;;;;2.63;72.52;99795.75;7398402;19;20031;-65
2022/01/31 09:19:50;;;;;;;24.52;5.57;;;;;;;2.67;72.51;99784.50;7397887;19;20039;-65
2022/01/31 09:22:18;;;;;;;30.33;6.28;;;;;;;2.70;72.90;99784.47;7396283;19;20032;-67
2022/01/31 09:24:49;;;;;;;23.40;5.85;;;;;;;2.73;72.37;99779.28;7399152;19;20018;-66
2022/01/31 09:27:17;;;;;;;19.73;5.60;;;;;;;2.74;71.34;99777.53;7398637;19;20022;-63
2022/01/31 09:29:46;;;;;;;24.80;5.82;;;;;;;2.77;72.06;99770.63;7397988;19;20018;-66
2022/01/31 09:32:15;;;;;;;25.77;5.63;;;;;;;2.79;72.31;99775.78;7396426;19;20019;-65
2022/01/31 09:34:45;;;;;;;28.85;4.57;;;;;;;2.82;72.31;99775.78;7396230;19;20015;-66
2022/01/31 09:37:14;;;;;;;22.45;4.47;;;;;;;2.84;72.34;99768.00;7398054;19;20026;-65
2022/01/31 09:39:43;;;;;;;24.33;4.63;;;;;;;2.79;72.38;99749.88;7398892;19;20011;-66
2022/01/31 09:42:14;;;;;;;23.80;5.03;;;;;;;2.91;71.91;99769.69;7398303;19;20015;-66
2022/01/31 09:44:51;;;;;;;29.92;6.28;;;;;;;2.95;71.94;99760.19;7397020;19;20021;-66
2022/01/31 09:47:24;;;;;;;20.00;5.10;;;;;;;2.98;72.27;99766.19;7395817;19;20043;-67
2022/01/31 09:49:55;;;;;;;20.33;4.82;;;;;;;2.97;71.31;99764.47;7396389;19;20015;-67
2022/01/31 09:52:23;;;;;;;17.70;5.13;;;;;;;3.02;71.32;99767.91;7398359;19;20015;-66
2022/01/31 09:54:51;;;;;;;16.55;4.47;;;;;;;3.02;71.50;99767.91;7397825;19;20023;-66
2022/01/31 09:57:20;;;;;;;14.30;4.30;;;;;;;3.03;72.42;99763.56;7396956;19;20022;-66
2022/01/31 09:59:48;;;;;;;16.88;4.28;;;;;;;3.05;72.66;99762.69;7398025;19;20387;-66
2022/01/31 10:02:18;;;;;;;16.65;4.47;;;;;;;3.09;73.19;99763.53;7395522;19;20019;-65
2022/01/31 10:04:48;;;;;;;20.65;4.85;;;;;;;3.15;73.33;99754.88;7397597;19;20507;-65
2022/01/31 10:07:21;;;;;;;16.83;4.63;;;;;;;3.19;73.50;99769.50;7396938;19;20014;-65
2022/01/31 10:09:50;;;;;;;11.05;4.60;;;;;;;3.23;73.92;99771.19;7397425;19;20015;-66
2022/01/31 10:16:24;;;;;;;16.05;4.70;;;;;;;3.23;74.00;99769.47;7395483;19;20532;-66
2022/01/31 10:18:02;;;;;;;16.42;4.45;;;;;;;3.22;74.49;99752.22;7395101;19;20042;-65
2022/01/31 10:20:31;;;;;;;13.83;5.03;;;;;;;3.23;74.71;99755.66;7397031;19;20026;-66
2022/01/31 10:23:08;;;;;;;12.80;4.30;;;;;;;3.21;75.23;99747.91;7396232;19;20010;-66
2022/01/31 10:25:36;;;;;;;13.35;4.18;;;;;;;3.25;75.29;99740.97;7397149;19;20018;-65
2022/01/31 10:28:12;;;;;;;8.85;4.63;;;;;;;3.24;75.36;99742.66;7395272;19;20035;-67
2022/01/31 10:30:42;;;;;;;11.25;4.38;;;;;;;3.26;75.69;99743.53;7395863;19;20037;-66
2022/01/31 10:33:12;;;;;;;10.68;5.03;;;;;;;3.27;75.75;99736.59;7394173;19;20454;-65
2022/01/31 10:35:41;;;;;;;14.32;4.70;;;;;;;3.28;75.90;99738.31;7394960;19;20031;-66
2022/01/31 10:38:18;;;;;;;12.27;4.90;;;;;;;3.30;75.92;99735.72;7395323;19;20018;-66
2022/01/31 10:50:36;;;;;;;11.15;3.97;;;;;;;3.25;76.44;99734.03;7392855;19;20070;-67
2022/01/31 10:52:05;;;;;;;12.98;5.15;;;;;;;3.17;76.94;99741.03;7394715;19;20021;-66
2022/01/31 10:54:41;;;;;;;14.90;4.25;;;;;;;3.12;77.19;99736.72;7395747;19;20487;-65
2022/01/31 10:57:17;;;;;;;15.80;4.45;;;;;;;3.06;77.22;99743.69;7392689;19;20018;-66
2022/01/31 10:59:48;;;;;;;12.07;5.10;;;;;;;3.02;77.44;99744.59;7396081;19;20022;-65
2022/01/31 11:02:19;;;;;;;18.02;4.82;;;;;;;3.00;77.74;99738.53;7393876;19;20025;-67
2022/01/31 11:04:48;;;;;;;13.32;4.63;;;;;;;2.97;78.45;99727.31;7395471;19;20082;-66
2022/01/31 11:07:18;;;;;;;14.55;4.65;;;;;;;2.92;78.34;99722.19;7394879;19;20022;-66
2022/01/31 11:09:51;;;;;;;15.07;5.78;;;;;;;2.88;78.80;99723.94;7394223;19;20018;-67
2022/01/31 11:12:23;;;;;;;10.98;5.13;;;;;;;2.84;79.38;99714.44;7395824;19;20093;-66
2022/01/31 11:14:53;;;;;;;11.73;5.28;;;;;;;2.82;79.37;99717.91;7393810;19;20022;-67
2022/01/31 11:17:21;;;;;;;14.98;6.13;;;;;;;2.79;79.81;99721.38;7395188;19;20014;-67
2022/01/31 11:19:56;;;;;;;12.18;6.70;;;;;;;2.81;79.64;99727.44;7393901;19;20023;-67
2022/01/31 11:22:29;;;;;;;110.25;49.10;;;;;;;2.82;79.91;99731.75;7394282;19;20024;-67
2022/01/31 11:25:05;;;;;;;53.65;24.83;;;;;;;2.82;80.54;99728.28;7393621;19;20040;-67
2022/01/31 11:27:33;;;;;;;16.38;7.13;;;;;;;2.81;80.89;99724.00;7394796;19;20045;-66
2022/01/31 11:30:02;;;;;;;15.00;5.72;;;;;;;2.76;81.22;99719.69;7393025;19;20019;-67
2022/01/31 11:32:30;;;;;;;17.77;5.95;;;;;;;2.75;81.69;99723.13;7391723;19;20014;-66
2022/01/31 11:34:59;;;;;;;13.80;6.53;;;;;;;2.76;81.92;99729.19;7392401;19;20037;-67
2022/01/31 11:37:27;;;;;;;15.10;6.43;;;;;;;2.76;82.38;99721.44;7393564;19;20382;-67
2022/01/31 11:40:03;;;;;;;12.90;6.32;;;;;;;2.74;82.87;99721.44;7394137;19;20022;-67
2022/01/31 11:42:32;;;;;;;15.27;6.40;;;;;;;2.73;83.23;99724.91;7393408;19;20014;-66
2022/01/31 11:45:06;;;;;;;13.70;6.53;;;;;;;2.70;83.49;99735.25;7393784;19;20015;-67
2022/01/31 11:47:35;;;;;;;17.33;6.10;;;;;;;2.67;83.42;99729.25;7394175;19;20027;-66
2022/01/31 11:50:06;;;;;;;16.35;6.22;;;;;;;2.64;83.72;99719.78;7396195;19;20032;-66
2022/01/31 11:52:44;;;;;;;14.38;5.95;;;;;;;2.66;84.15;99722.34;7392890;19;20022;-66
2022/01/31 11:55:17;;;;;;;9.95;5.25;;;;;;;2.64;84.35;99717.19;7394962;19;20385;-66